sensor_id;sensor_type;location;lat;lon;timestamp;temperature;humidity
35668;DHT22;22158;59.280;17.806;2024-02-26T00:02:23;0.50;99.90
35668;DHT22;22158;59.280;17.806;2024-02-26T00:04:49;0.60;99.90
35668;DHT22;22158;59.280;17.806;2024-02-26T00:07:15;0.60;99.90
35668;DHT22;22158;59.280;17.806;2024-02-26T00:09:41;0.60;99.90
35668;DHT22;22158;59.280;17.806;2024-02-26T00:12:07;0.60;99.90
35668;DHT22;22158;59.280;17.806;2024-02-26T00:14:33;0.70;99.90
35668;DHT22;22158;59.280;17.806;2024-02-26T00:16:59;0.70;99.90
35668;DHT22;22158;59.280;17.806;2024-02-26T00:19:25;0.70;99.90
35668;DHT22;22158;59.280;17.806;2024-02-26T00:21:50;0.70;99.90
35668;DHT22;22158;59.280;17.806;2024-02-26T00:24:16;0.80;99.90
35668;DHT22;22158;59.280;17.806;2024-02-26T00:26:41;0.80;99.90
35668;DHT22;22158;59.280;17.806;2024-02-26T00:29:07;0.90;99.90
35668;DHT22;22158;59.280;17.806;2024-02-26T00:31:33;0.90;99.90
35668;DHT22;22158;59.280;17.806;2024-02-26T00:33:58;1.00;99.90
35668;DHT22;22158;59.280;17.806;2024-02-26T00:36:24;1.00;99.90
35668;DHT22;22158;59.280;17.806;2024-02-26T00:38:50;1.10;99.90
35668;DHT22;22158;59.280;17.806;2024-02-26T00:41:22;1.10;99.90
35668;DHT22;22158;59.280;17.806;2024-02-26T00:43:48;1.10;99.90
35668;DHT22;22158;59.280;17.806;2024-02-26T00:46:14;1.20;99.90
35668;DHT22;22158;59.280;17.806;2024-02-26T00:48:39;1.20;99.90
35668;DHT22;22158;59.280;17.806;2024-02-26T00:51:05;1.20;99.90
35668;DHT22;22158;59.280;17.806;2024-02-26T00:53:31;1.20;99.90
35668;DHT22;22158;59.280;17.806;2024-02-26T00:55:57;1.30;99.90
35668;DHT22;22158;59.280;17.806;2024-02-26T00:58:27;1.30;99.90
35668;DHT22;22158;59.280;17.806;2024-02-26T01:00:53;1.20;99.90
35668;DHT22;22158;59.280;17.806;2024-02-26T01:03:19;1.20;99.90
35668;DHT22;22158;59.280;17.806;2024-02-26T01:05:45;1.20;99.90
35668;DHT22;22158;59.280;17.806;2024-02-26T01:08:10;1.20;99.90
35668;DHT22;22158;59.280;17.806;2024-02-26T01:10:36;1.20;99.90
35668;DHT22;22158;59.280;17.806;2024-02-26T01:13:02;1.10;99.90
35668;DHT22;22158;59.280;17.806;2024-02-26T01:15:27;1.10;99.90
35668;DHT22;22158;59.280;17.806;2024-02-26T01:17:53;1.10;99.90
35668;DHT22;22158;59.280;17.806;2024-02-26T01:20:19;1.00;99.90
35668;DHT22;22158;59.280;17.806;2024-02-26T01:22:45;1.00;99.90
35668;DHT22;22158;59.280;17.806;2024-02-26T01:25:11;1.00;99.90
35668;DHT22;22158;59.280;17.806;2024-02-26T01:27:37;1.00;99.90
35668;DHT22;22158;59.280;17.806;2024-02-26T01:30:04;1.00;99.90
35668;DHT22;22158;59.280;17.806;2024-02-26T01:32:30;1.00;99.90
35668;DHT22;22158;59.280;17.806;2024-02-26T01:34:56;1.00;99.90
35668;DHT22;22158;59.280;17.806;2024-02-26T01:37:22;1.10;99.90
35668;DHT22;22158;59.280;17.806;2024-02-26T01:39:48;1.00;99.90
35668;DHT22;22158;59.280;17.806;2024-02-26T01:42:14;1.10;99.90
35668;DHT22;22158;59.280;17.806;2024-02-26T01:44:39;1.10;99.90
35668;DHT22;22158;59.280;17.806;2024-02-26T01:47:10;1.10;99.90
35668;DHT22;22158;59.280;17.806;2024-02-26T01:49:37;1.20;99.90
35668;DHT22;22158;59.280;17.806;2024-02-26T01:52:03;1.20;99.90
35668;DHT22;22158;59.280;17.806;2024-02-26T01:54:30;1.20;99.90
35668;DHT22;22158;59.280;17.806;2024-02-26T01:56:56;1.20;99.90
35668;DHT22;22158;59.280;17.806;2024-02-26T01:59:23;1.20;99.90
35668;DHT22;22158;59.280;17.806;2024-02-26T02:01:53;1.30;99.90
35668;DHT22;22158;59.280;17.806;2024-02-26T02:04:19;1.30;99.90
35668;DHT22;22158;59.280;17.806;2024-02-26T02:06:46;1.30;99.90
35668;DHT22;22158;59.280;17.806;2024-02-26T02:09:12;1.30;99.90
35668;DHT22;22158;59.280;17.806;2024-02-26T02:11:37;1.40;99.90
35668;DHT22;22158;59.280;17.806;2024-02-26T02:14:03;1.40;99.90
35668;DHT22;22158;59.280;17.806;2024-02-26T02:16:29;1.40;99.90
35668;DHT22;22158;59.280;17.806;2024-02-26T02:18:55;1.40;99.90
35668;DHT22;22158;59.280;17.806;2024-02-26T02:21:20;1.40;99.90
35668;DHT22;22158;59.280;17.806;2024-02-26T02:23:46;1.40;99.90
35668;DHT22;22158;59.280;17.806;2024-02-26T02:26:14;1.40;99.90
35668;DHT22;22158;59.280;17.806;2024-02-26T02:28:40;1.40;99.90
35668;DHT22;22158;59.280;17.806;2024-02-26T02:31:07;1.40;99.90
35668;DHT22;22158;59.280;17.806;2024-02-26T02:33:34;1.40;99.90
35668;DHT22;22158;59.280;17.806;2024-02-26T02:36:00;1.40;99.90
35668;DHT22;22158;59.280;17.806;2024-02-26T02:38:26;1.50;99.90
35668;DHT22;22158;59.280;17.806;2024-02-26T02:40:52;1.50;99.90
35668;DHT22;22158;59.280;17.806;2024-02-26T02:43:18;1.50;99.90
35668;DHT22;22158;59.280;17.806;2024-02-26T02:45:43;1.50;99.90
35668;DHT22;22158;59.280;17.806;2024-02-26T02:48:10;1.50;99.90
35668;DHT22;22158;59.280;17.806;2024-02-26T02:50:36;1.50;99.90
35668;DHT22;22158;59.280;17.806;2024-02-26T02:53:02;1.50;99.90
35668;DHT22;22158;59.280;17.806;2024-02-26T02:55:28;1.50;99.90
35668;DHT22;22158;59.280;17.806;2024-02-26T02:57:53;1.50;99.90
35668;DHT22;22158;59.280;17.806;2024-02-26T03:00:19;1.60;99.90
35668;DHT22;22158;59.280;17.806;2024-02-26T03:02:45;1.60;99.90
35668;DHT22;22158;59.280;17.806;2024-02-26T03:05:11;1.60;99.90
35668;DHT22;22158;59.280;17.806;2024-02-26T03:07:37;1.60;99.90
35668;DHT22;22158;59.280;17.806;2024-02-26T03:10:03;1.60;99.90
35668;DHT22;22158;59.280;17.806;2024-02-26T03:12:30;1.60;99.90
35668;DHT22;22158;59.280;17.806;2024-02-26T03:14:56;1.60;99.90
35668;DHT22;22158;59.280;17.806;2024-02-26T03:17:22;1.60;99.90
35668;DHT22;22158;59.280;17.806;2024-02-26T03:19:49;1.60;99.90
35668;DHT22;22158;59.280;17.806;2024-02-26T03:22:19;1.50;99.90
35668;DHT22;22158;59.280;17.806;2024-02-26T03:24:45;1.60;99.90
35668;DHT22;22158;59.280;17.806;2024-02-26T03:27:11;1.60;99.90
35668;DHT22;22158;59.280;17.806;2024-02-26T03:29:37;1.70;99.90
35668;DHT22;22158;59.280;17.806;2024-02-26T03:32:04;1.60;99.90
35668;DHT22;22158;59.280;17.806;2024-02-26T03:34:30;1.70;99.90
35668;DHT22;22158;59.280;17.806;2024-02-26T03:36:56;1.70;99.90
35668;DHT22;22158;59.280;17.806;2024-02-26T03:39:22;1.70;99.90
35668;DHT22;22158;59.280;17.806;2024-02-26T03:41:48;1.70;99.90
35668;DHT22;22158;59.280;17.806;2024-02-26T03:44:14;1.70;99.90
35668;DHT22;22158;59.280;17.806;2024-02-26T03:46:40;1.70;99.90
35668;DHT22;22158;59.280;17.806;2024-02-26T03:49:08;1.80;99.90
35668;DHT22;22158;59.280;17.806;2024-02-26T03:51:34;1.80;99.90
35668;DHT22;22158;59.280;17.806;2024-02-26T03:54:00;1.80;99.90
35668;DHT22;22158;59.280;17.806;2024-02-26T03:56:26;1.70;99.90
35668;DHT22;22158;59.280;17.806;2024-02-26T03:58:53;1.70;99.90
35668;DHT22;22158;59.280;17.806;2024-02-26T04:01:18;1.70;99.90
35668;DHT22;22158;59.280;17.806;2024-02-26T04:03:44;1.70;99.90
35668;DHT22;22158;59.280;17.806;2024-02-26T04:06:10;1.70;99.90
35668;DHT22;22158;59.280;17.806;2024-02-26T04:08:37;1.60;99.90
35668;DHT22;22158;59.280;17.806;2024-02-26T04:11:03;1.60;99.90
35668;DHT22;22158;59.280;17.806;2024-02-26T04:13:33;1.60;99.90
35668;DHT22;22158;59.280;17.806;2024-02-26T04:15:59;1.60;99.90
35668;DHT22;22158;59.280;17.806;2024-02-26T04:18:27;1.60;99.90
35668;DHT22;22158;59.280;17.806;2024-02-26T04:20:52;1.60;99.90
35668;DHT22;22158;59.280;17.806;2024-02-26T04:23:18;1.70;99.90
35668;DHT22;22158;59.280;17.806;2024-02-26T04:25:44;1.70;99.90
35668;DHT22;22158;59.280;17.806;2024-02-26T04:28:10;1.60;99.90
35668;DHT22;22158;59.280;17.806;2024-02-26T04:30:36;1.60;99.90
35668;DHT22;22158;59.280;17.806;2024-02-26T04:33:02;1.60;99.90
35668;DHT22;22158;59.280;17.806;2024-02-26T04:35:27;1.60;99.90
35668;DHT22;22158;59.280;17.806;2024-02-26T04:37:53;1.60;99.90
35668;DHT22;22158;59.280;17.806;2024-02-26T04:40:19;1.50;99.90
35668;DHT22;22158;59.280;17.806;2024-02-26T04:42:44;1.50;99.90
35668;DHT22;22158;59.280;17.806;2024-02-26T04:45:10;1.50;99.90
35668;DHT22;22158;59.280;17.806;2024-02-26T04:47:36;1.50;99.90
35668;DHT22;22158;59.280;17.806;2024-02-26T04:50:01;1.50;99.90
35668;DHT22;22158;59.280;17.806;2024-02-26T04:52:27;1.50;99.90
35668;DHT22;22158;59.280;17.806;2024-02-26T04:54:53;1.50;99.90
35668;DHT22;22158;59.280;17.806;2024-02-26T04:57:20;1.50;99.90
35668;DHT22;22158;59.280;17.806;2024-02-26T04:59:46;1.40;99.90
35668;DHT22;22158;59.280;17.806;2024-02-26T05:02:12;1.40;99.90
35668;DHT22;22158;59.280;17.806;2024-02-26T05:04:38;1.40;99.90
35668;DHT22;22158;59.280;17.806;2024-02-26T05:07:04;1.40;99.90
35668;DHT22;22158;59.280;17.806;2024-02-26T05:09:29;1.40;99.90
35668;DHT22;22158;59.280;17.806;2024-02-26T05:11:55;1.40;99.90
35668;DHT22;22158;59.280;17.806;2024-02-26T05:14:21;1.30;99.90
35668;DHT22;22158;59.280;17.806;2024-02-26T05:16:47;1.30;99.90
35668;DHT22;22158;59.280;17.806;2024-02-26T05:19:13;1.30;99.90
35668;DHT22;22158;59.280;17.806;2024-02-26T05:21:39;1.30;99.90
35668;DHT22;22158;59.280;17.806;2024-02-26T05:24:06;1.30;99.90
35668;DHT22;22158;59.280;17.806;2024-02-26T05:26:32;1.30;99.90
35668;DHT22;22158;59.280;17.806;2024-02-26T05:28:57;1.30;99.90
35668;DHT22;22158;59.280;17.806;2024-02-26T05:31:25;1.20;99.90
35668;DHT22;22158;59.280;17.806;2024-02-26T05:33:51;1.20;99.90
35668;DHT22;22158;59.280;17.806;2024-02-26T05:36:21;1.30;99.90
35668;DHT22;22158;59.280;17.806;2024-02-26T05:38:48;1.30;99.90
35668;DHT22;22158;59.280;17.806;2024-02-26T05:41:17;1.30;99.90
35668;DHT22;22158;59.280;17.806;2024-02-26T05:43:51;1.20;99.90
35668;DHT22;22158;59.280;17.806;2024-02-26T05:46:17;1.20;99.90
35668;DHT22;22158;59.280;17.806;2024-02-26T05:48:44;1.20;99.90
35668;DHT22;22158;59.280;17.806;2024-02-26T05:51:10;1.20;99.90
35668;DHT22;22158;59.280;17.806;2024-02-26T05:53:35;1.20;99.90
35668;DHT22;22158;59.280;17.806;2024-02-26T05:56:01;1.20;99.90
35668;DHT22;22158;59.280;17.806;2024-02-26T05:58:27;1.20;99.90
35668;DHT22;22158;59.280;17.806;2024-02-26T06:00:52;1.20;99.90
35668;DHT22;22158;59.280;17.806;2024-02-26T06:03:18;1.20;99.90
35668;DHT22;22158;59.280;17.806;2024-02-26T06:05:44;1.20;99.90
35668;DHT22;22158;59.280;17.806;2024-02-26T06:08:09;1.20;99.90
35668;DHT22;22158;59.280;17.806;2024-02-26T06:10:35;1.20;99.90
35668;DHT22;22158;59.280;17.806;2024-02-26T06:13:01;1.30;99.90
35668;DHT22;22158;59.280;17.806;2024-02-26T06:15:26;1.30;99.90
35668;DHT22;22158;59.280;17.806;2024-02-26T06:17:52;1.30;99.90
35668;DHT22;22158;59.280;17.806;2024-02-26T06:20:17;1.30;99.90
35668;DHT22;22158;59.280;17.806;2024-02-26T06:22:43;1.40;99.90
35668;DHT22;22158;59.280;17.806;2024-02-26T06:25:09;1.40;99.90
35668;DHT22;22158;59.280;17.806;2024-02-26T06:27:35;1.40;99.90
35668;DHT22;22158;59.280;17.806;2024-02-26T06:30:01;1.40;99.90
35668;DHT22;22158;59.280;17.806;2024-02-26T06:32:27;1.40;99.90
35668;DHT22;22158;59.280;17.806;2024-02-26T06:34:54;1.40;99.90
35668;DHT22;22158;59.280;17.806;2024-02-26T06:37:20;1.40;99.90
35668;DHT22;22158;59.280;17.806;2024-02-26T06:39:46;1.30;99.90
35668;DHT22;22158;59.280;17.806;2024-02-26T06:42:12;1.40;99.90
35668;DHT22;22158;59.280;17.806;2024-02-26T06:44:37;1.40;99.90
35668;DHT22;22158;59.280;17.806;2024-02-26T06:47:03;1.40;99.90
35668;DHT22;22158;59.280;17.806;2024-02-26T06:49:29;1.50;99.90
35668;DHT22;22158;59.280;17.806;2024-02-26T06:51:55;1.60;99.90
35668;DHT22;22158;59.280;17.806;2024-02-26T06:54:20;1.60;99.90
35668;DHT22;22158;59.280;17.806;2024-02-26T06:56:46;1.70;99.90
35668;DHT22;22158;59.280;17.806;2024-02-26T06:59:12;1.70;99.90
35668;DHT22;22158;59.280;17.806;2024-02-26T07:01:42;1.80;99.90
35668;DHT22;22158;59.280;17.806;2024-02-26T07:04:08;1.80;99.90
35668;DHT22;22158;59.280;17.806;2024-02-26T07:06:34;1.90;99.90
35668;DHT22;22158;59.280;17.806;2024-02-26T07:08:59;1.90;99.90
35668;DHT22;22158;59.280;17.806;2024-02-26T07:11:25;1.90;99.90
35668;DHT22;22158;59.280;17.806;2024-02-26T07:13:51;1.90;99.90
35668;DHT22;22158;59.280;17.806;2024-02-26T07:16:16;2.00;99.90
35668;DHT22;22158;59.280;17.806;2024-02-26T07:18:42;2.10;99.90
35668;DHT22;22158;59.280;17.806;2024-02-26T07:21:12;2.10;99.90
35668;DHT22;22158;59.280;17.806;2024-02-26T07:23:37;2.20;99.90
35668;DHT22;22158;59.280;17.806;2024-02-26T07:26:03;2.20;99.90
35668;DHT22;22158;59.280;17.806;2024-02-26T07:28:29;2.20;99.90
35668;DHT22;22158;59.280;17.806;2024-02-26T07:30:54;2.20;99.90
35668;DHT22;22158;59.280;17.806;2024-02-26T07:33:20;2.20;99.90
35668;DHT22;22158;59.280;17.806;2024-02-26T07:35:46;2.20;99.90
35668;DHT22;22158;59.280;17.806;2024-02-26T07:38:12;2.30;99.90
35668;DHT22;22158;59.280;17.806;2024-02-26T07:40:39;2.30;99.90
35668;DHT22;22158;59.280;17.806;2024-02-26T07:43:04;2.30;99.90
35668;DHT22;22158;59.280;17.806;2024-02-26T07:45:30;2.40;99.90
35668;DHT22;22158;59.280;17.806;2024-02-26T07:47:56;2.50;99.90
35668;DHT22;22158;59.280;17.806;2024-02-26T07:50:21;2.50;99.90
35668;DHT22;22158;59.280;17.806;2024-02-26T07:52:47;2.60;99.90
35668;DHT22;22158;59.280;17.806;2024-02-26T07:55:13;2.60;99.90
35668;DHT22;22158;59.280;17.806;2024-02-26T07:57:42;2.70;99.90
35668;DHT22;22158;59.280;17.806;2024-02-26T08:00:09;2.70;99.90
35668;DHT22;22158;59.280;17.806;2024-02-26T08:02:36;2.80;99.90
35668;DHT22;22158;59.280;17.806;2024-02-26T08:05:01;2.90;99.90
35668;DHT22;22158;59.280;17.806;2024-02-26T08:07:27;2.90;99.90
35668;DHT22;22158;59.280;17.806;2024-02-26T08:09:54;3.00;99.90
35668;DHT22;22158;59.280;17.806;2024-02-26T08:12:19;3.00;99.90
35668;DHT22;22158;59.280;17.806;2024-02-26T08:14:45;3.00;99.90
35668;DHT22;22158;59.280;17.806;2024-02-26T08:17:11;3.10;99.90
35668;DHT22;22158;59.280;17.806;2024-02-26T08:19:36;3.10;99.90
35668;DHT22;22158;59.280;17.806;2024-02-26T08:22:03;3.10;99.90
35668;DHT22;22158;59.280;17.806;2024-02-26T08:24:28;3.10;99.90
35668;DHT22;22158;59.280;17.806;2024-02-26T08:26:54;3.10;99.90
35668;DHT22;22158;59.280;17.806;2024-02-26T08:29:20;3.20;99.90
35668;DHT22;22158;59.280;17.806;2024-02-26T08:31:45;3.20;99.90
35668;DHT22;22158;59.280;17.806;2024-02-26T08:34:11;3.30;99.90
35668;DHT22;22158;59.280;17.806;2024-02-26T08:36:37;3.40;99.90
35668;DHT22;22158;59.280;17.806;2024-02-26T08:39:03;3.40;99.90
35668;DHT22;22158;59.280;17.806;2024-02-26T08:41:29;3.50;99.90
35668;DHT22;22158;59.280;17.806;2024-02-26T08:43:55;3.50;99.90
35668;DHT22;22158;59.280;17.806;2024-02-26T08:46:21;3.50;99.90
35668;DHT22;22158;59.280;17.806;2024-02-26T08:48:46;3.60;99.90
35668;DHT22;22158;59.280;17.806;2024-02-26T08:51:12;3.60;99.90
35668;DHT22;22158;59.280;17.806;2024-02-26T08:53:38;3.60;99.90
35668;DHT22;22158;59.280;17.806;2024-02-26T08:56:05;3.70;99.90
35668;DHT22;22158;59.280;17.806;2024-02-26T08:58:31;3.70;99.90
35668;DHT22;22158;59.280;17.806;2024-02-26T09:00:56;3.80;99.90
35668;DHT22;22158;59.280;17.806;2024-02-26T09:03:22;3.80;99.90
35668;DHT22;22158;59.280;17.806;2024-02-26T09:05:48;3.80;99.90
35668;DHT22;22158;59.280;17.806;2024-02-26T09:08:14;3.80;99.90
35668;DHT22;22158;59.280;17.806;2024-02-26T09:10:40;3.80;99.90
35668;DHT22;22158;59.280;17.806;2024-02-26T09:13:05;3.80;99.90
35668;DHT22;22158;59.280;17.806;2024-02-26T09:15:31;3.80;99.90
35668;DHT22;22158;59.280;17.806;2024-02-26T09:17:57;3.80;99.90
35668;DHT22;22158;59.280;17.806;2024-02-26T09:20:23;3.80;99.90
35668;DHT22;22158;59.280;17.806;2024-02-26T09:22:49;3.80;99.90
35668;DHT22;22158;59.280;17.806;2024-02-26T09:25:16;3.80;99.90
35668;DHT22;22158;59.280;17.806;2024-02-26T09:27:42;3.80;99.90
35668;DHT22;22158;59.280;17.806;2024-02-26T09:30:13;3.80;99.90
35668;DHT22;22158;59.280;17.806;2024-02-26T09:32:40;3.90;99.90
35668;DHT22;22158;59.280;17.806;2024-02-26T09:35:06;3.90;99.90
35668;DHT22;22158;59.280;17.806;2024-02-26T09:37:32;3.90;99.90
35668;DHT22;22158;59.280;17.806;2024-02-26T09:39:59;4.00;99.90
35668;DHT22;22158;59.280;17.806;2024-02-26T09:42:27;4.10;99.90
35668;DHT22;22158;59.280;17.806;2024-02-26T09:44:59;4.10;99.90
35668;DHT22;22158;59.280;17.806;2024-02-26T09:47:28;4.20;99.90
35668;DHT22;22158;59.280;17.806;2024-02-26T09:49:57;4.30;99.90
35668;DHT22;22158;59.280;17.806;2024-02-26T09:52:24;4.30;99.90
35668;DHT22;22158;59.280;17.806;2024-02-26T09:54:50;4.40;99.90
35668;DHT22;22158;59.280;17.806;2024-02-26T09:57:16;4.50;99.90
35668;DHT22;22158;59.280;17.806;2024-02-26T09:59:43;4.50;99.90
35668;DHT22;22158;59.280;17.806;2024-02-26T10:02:11;4.60;99.90
35668;DHT22;22158;59.280;17.806;2024-02-26T10:04:41;4.60;99.90
35668;DHT22;22158;59.280;17.806;2024-02-26T10:07:11;4.70;99.90
35668;DHT22;22158;59.280;17.806;2024-02-26T10:09:37;4.70;99.90
35668;DHT22;22158;59.280;17.806;2024-02-26T10:12:04;4.70;99.90
35668;DHT22;22158;59.280;17.806;2024-02-26T10:14:30;4.70;99.90
35668;DHT22;22158;59.280;17.806;2024-02-26T10:16:56;4.80;99.90
35668;DHT22;22158;59.280;17.806;2024-02-26T10:19:29;4.80;99.90
35668;DHT22;22158;59.280;17.806;2024-02-26T10:21:59;4.80;99.90
35668;DHT22;22158;59.280;17.806;2024-02-26T10:24:26;4.80;99.90
35668;DHT22;22158;59.280;17.806;2024-02-26T10:26:52;4.80;99.90
35668;DHT22;22158;59.280;17.806;2024-02-26T10:29:20;4.80;99.90
35668;DHT22;22158;59.280;17.806;2024-02-26T10:31:46;4.90;99.90
35668;DHT22;22158;59.280;17.806;2024-02-26T10:34:12;4.90;99.90
35668;DHT22;22158;59.280;17.806;2024-02-26T10:36:39;4.90;99.90
35668;DHT22;22158;59.280;17.806;2024-02-26T10:39:09;4.90;99.90
35668;DHT22;22158;59.280;17.806;2024-02-26T10:41:35;5.00;99.90
35668;DHT22;22158;59.280;17.806;2024-02-26T10:44:00;5.00;99.90
35668;DHT22;22158;59.280;17.806;2024-02-26T10:46:26;5.00;99.90
35668;DHT22;22158;59.280;17.806;2024-02-26T10:48:53;5.00;99.90
35668;DHT22;22158;59.280;17.806;2024-02-26T10:51:29;5.10;99.90
35668;DHT22;22158;59.280;17.806;2024-02-26T10:53:59;5.20;99.90
35668;DHT22;22158;59.280;17.806;2024-02-26T10:56:29;5.20;99.90
35668;DHT22;22158;59.280;17.806;2024-02-26T10:58:59;5.20;99.90
35668;DHT22;22158;59.280;17.806;2024-02-26T11:01:27;5.30;99.90
35668;DHT22;22158;59.280;17.806;2024-02-26T11:03:58;5.30;99.90
35668;DHT22;22158;59.280;17.806;2024-02-26T11:06:26;5.30;99.90
35668;DHT22;22158;59.280;17.806;2024-02-26T11:08:53;5.30;99.90
35668;DHT22;22158;59.280;17.806;2024-02-26T11:11:20;5.30;99.90
35668;DHT22;22158;59.280;17.806;2024-02-26T11:13:47;5.30;99.90
35668;DHT22;22158;59.280;17.806;2024-02-26T11:16:21;5.20;99.90
35668;DHT22;22158;59.280;17.806;2024-02-26T11:18:48;5.20;99.90
35668;DHT22;22158;59.280;17.806;2024-02-26T11:21:17;5.30;99.90
35668;DHT22;22158;59.280;17.806;2024-02-26T11:23:53;5.30;99.90
35668;DHT22;22158;59.280;17.806;2024-02-26T11:26:20;5.30;99.90
35668;DHT22;22158;59.280;17.806;2024-02-26T11:28:47;5.30;99.90
35668;DHT22;22158;59.280;17.806;2024-02-26T11:31:13;5.30;99.90
35668;DHT22;22158;59.280;17.806;2024-02-26T11:33:39;5.30;99.90
35668;DHT22;22158;59.280;17.806;2024-02-26T11:36:11;5.40;99.90
35668;DHT22;22158;59.280;17.806;2024-02-26T11:38:38;5.40;99.90
35668;DHT22;22158;59.280;17.806;2024-02-26T11:41:05;5.40;99.90
35668;DHT22;22158;59.280;17.806;2024-02-26T11:44:02;5.40;99.90
35668;DHT22;22158;59.280;17.806;2024-02-26T11:49:00;5.40;99.90
35668;DHT22;22158;59.280;17.806;2024-02-26T11:51:27;5.40;99.90
35668;DHT22;22158;59.280;17.806;2024-02-26T11:53:54;5.40;99.90
35668;DHT22;22158;59.280;17.806;2024-02-26T11:56:23;5.50;99.90
35668;DHT22;22158;59.280;17.806;2024-02-26T11:58:53;5.50;99.90
35668;DHT22;22158;59.280;17.806;2024-02-26T12:06:55;5.50;99.90
35668;DHT22;22158;59.280;17.806;2024-02-26T12:09:39;5.60;99.90
35668;DHT22;22158;59.280;17.806;2024-02-26T12:12:09;5.70;99.90
35668;DHT22;22158;59.280;17.806;2024-02-26T12:14:40;5.80;99.90
35668;DHT22;22158;59.280;17.806;2024-02-26T12:17:20;5.90;99.90
35668;DHT22;22158;59.280;17.806;2024-02-26T12:19:46;6.00;99.90
35668;DHT22;22158;59.280;17.806;2024-02-26T12:22:15;6.10;99.90
35668;DHT22;22158;59.280;17.806;2024-02-26T12:24:42;6.20;99.90
35668;DHT22;22158;59.280;17.806;2024-02-26T12:27:07;6.20;99.90
35668;DHT22;22158;59.280;17.806;2024-02-26T12:29:33;6.20;99.90
35668;DHT22;22158;59.280;17.806;2024-02-26T12:31:59;6.20;99.90
35668;DHT22;22158;59.280;17.806;2024-02-26T12:34:25;6.20;99.90
35668;DHT22;22158;59.280;17.806;2024-02-26T12:36:53;6.20;99.90
35668;DHT22;22158;59.280;17.806;2024-02-26T12:39:19;6.30;99.90
35668;DHT22;22158;59.280;17.806;2024-02-26T12:41:46;6.30;99.90
35668;DHT22;22158;59.280;17.806;2024-02-26T12:44:18;6.40;99.90
35668;DHT22;22158;59.280;17.806;2024-02-26T12:46:44;6.50;99.90
35668;DHT22;22158;59.280;17.806;2024-02-26T12:49:15;6.60;99.90
35668;DHT22;22158;59.280;17.806;2024-02-26T12:51:44;6.70;99.90
35668;DHT22;22158;59.280;17.806;2024-02-26T12:54:09;6.70;99.90
35668;DHT22;22158;59.280;17.806;2024-02-26T12:56:35;6.70;99.90
35668;DHT22;22158;59.280;17.806;2024-02-26T12:59:02;6.60;99.90
35668;DHT22;22158;59.280;17.806;2024-02-26T13:01:28;6.50;99.90
35668;DHT22;22158;59.280;17.806;2024-02-26T13:03:54;6.50;99.90
35668;DHT22;22158;59.280;17.806;2024-02-26T13:06:21;6.50;99.90
35668;DHT22;22158;59.280;17.806;2024-02-26T13:08:49;6.40;99.90
35668;DHT22;22158;59.280;17.806;2024-02-26T13:11:15;6.40;99.90
35668;DHT22;22158;59.280;17.806;2024-02-26T13:13:41;6.40;99.90
35668;DHT22;22158;59.280;17.806;2024-02-26T13:16:10;6.30;99.90
35668;DHT22;22158;59.280;17.806;2024-02-26T13:18:36;6.30;99.90
35668;DHT22;22158;59.280;17.806;2024-02-26T13:21:12;6.20;99.90
35668;DHT22;22158;59.280;17.806;2024-02-26T13:23:39;6.20;99.90
35668;DHT22;22158;59.280;17.806;2024-02-26T13:26:05;6.30;99.90
35668;DHT22;22158;59.280;17.806;2024-02-26T13:28:32;6.30;99.90
35668;DHT22;22158;59.280;17.806;2024-02-26T13:30:58;6.30;99.90
35668;DHT22;22158;59.280;17.806;2024-02-26T13:33:29;6.40;99.90
35668;DHT22;22158;59.280;17.806;2024-02-26T13:35:56;6.40;99.90
35668;DHT22;22158;59.280;17.806;2024-02-26T13:38:22;6.40;99.90
35668;DHT22;22158;59.280;17.806;2024-02-26T13:40:48;6.40;99.90
35668;DHT22;22158;59.280;17.806;2024-02-26T13:43:13;6.30;99.90
35668;DHT22;22158;59.280;17.806;2024-02-26T13:45:39;6.30;99.90
35668;DHT22;22158;59.280;17.806;2024-02-26T13:48:06;6.20;99.90
35668;DHT22;22158;59.280;17.806;2024-02-26T13:50:33;6.20;99.90
35668;DHT22;22158;59.280;17.806;2024-02-26T13:52:58;6.10;99.90
35668;DHT22;22158;59.280;17.806;2024-02-26T13:55:27;6.10;99.90
35668;DHT22;22158;59.280;17.806;2024-02-26T13:57:58;6.00;99.90
35668;DHT22;22158;59.280;17.806;2024-02-26T14:00:24;6.00;99.90
35668;DHT22;22158;59.280;17.806;2024-02-26T14:02:52;6.00;99.90
35668;DHT22;22158;59.280;17.806;2024-02-26T14:05:18;6.00;99.90
35668;DHT22;22158;59.280;17.806;2024-02-26T14:07:44;5.90;99.90
35668;DHT22;22158;59.280;17.806;2024-02-26T14:10:12;6.00;99.90
35668;DHT22;22158;59.280;17.806;2024-02-26T14:12:38;6.00;99.90
35668;DHT22;22158;59.280;17.806;2024-02-26T14:15:06;5.90;99.90
35668;DHT22;22158;59.280;17.806;2024-02-26T14:17:32;5.90;99.90
35668;DHT22;22158;59.280;17.806;2024-02-26T14:19:58;5.80;99.90
35668;DHT22;22158;59.280;17.806;2024-02-26T14:22:24;5.80;99.90
35668;DHT22;22158;59.280;17.806;2024-02-26T14:24:52;5.80;99.90
35668;DHT22;22158;59.280;17.806;2024-02-26T14:27:18;5.80;99.90
35668;DHT22;22158;59.280;17.806;2024-02-26T14:29:46;5.80;99.90
35668;DHT22;22158;59.280;17.806;2024-02-26T14:32:12;5.70;99.90
35668;DHT22;22158;59.280;17.806;2024-02-26T14:34:38;5.70;99.90
35668;DHT22;22158;59.280;17.806;2024-02-26T14:37:04;5.70;99.90
35668;DHT22;22158;59.280;17.806;2024-02-26T14:39:31;5.70;99.90
35668;DHT22;22158;59.280;17.806;2024-02-26T14:41:57;5.60;99.90
35668;DHT22;22158;59.280;17.806;2024-02-26T14:44:23;5.60;99.90
35668;DHT22;22158;59.280;17.806;2024-02-26T14:46:49;5.50;99.90
35668;DHT22;22158;59.280;17.806;2024-02-26T14:49:15;5.50;99.90
35668;DHT22;22158;59.280;17.806;2024-02-26T14:51:41;5.50;99.90
35668;DHT22;22158;59.280;17.806;2024-02-26T14:54:07;5.50;99.90
35668;DHT22;22158;59.280;17.806;2024-02-26T14:56:33;5.50;99.90
35668;DHT22;22158;59.280;17.806;2024-02-26T14:58:59;5.40;99.90
35668;DHT22;22158;59.280;17.806;2024-02-26T15:01:24;5.40;99.90
35668;DHT22;22158;59.280;17.806;2024-02-26T15:03:50;5.30;99.90
35668;DHT22;22158;59.280;17.806;2024-02-26T15:06:16;5.30;99.90
35668;DHT22;22158;59.280;17.806;2024-02-26T15:08:42;5.20;99.90
35668;DHT22;22158;59.280;17.806;2024-02-26T15:11:07;5.20;99.90
35668;DHT22;22158;59.280;17.806;2024-02-26T15:13:35;5.20;99.90
35668;DHT22;22158;59.280;17.806;2024-02-26T15:16:01;5.10;99.90
35668;DHT22;22158;59.280;17.806;2024-02-26T15:18:27;5.20;99.90
35668;DHT22;22158;59.280;17.806;2024-02-26T15:20:52;5.10;99.90
35668;DHT22;22158;59.280;17.806;2024-02-26T15:23:18;5.10;99.90
35668;DHT22;22158;59.280;17.806;2024-02-26T15:25:44;5.00;99.90
35668;DHT22;22158;59.280;17.806;2024-02-26T15:28:10;4.90;99.90
35668;DHT22;22158;59.280;17.806;2024-02-26T15:30:37;4.80;99.90
35668;DHT22;22158;59.280;17.806;2024-02-26T15:33:02;4.70;99.90
35668;DHT22;22158;59.280;17.806;2024-02-26T15:35:28;4.70;99.90